createdAt,value
2018-02-15T00:01:08.805Z,101070.16
2018-02-15T00:03:41.324Z,101068.73
2018-02-15T00:06:13.824Z,101067.52
2018-02-15T00:08:46.418Z,101070.41
2018-02-15T00:11:18.912Z,101078.28
2018-02-15T00:13:51.439Z,101076.39
2018-02-15T00:16:23.940Z,101067.88
2018-02-15T00:18:56.466Z,101074.01
2018-02-15T00:21:28.997Z,101071.86
2018-02-15T00:24:01.516Z,101073.57
2018-02-15T00:26:34.018Z,101069.87
2018-02-15T00:29:06.543Z,101060.02
2018-02-15T00:31:39.036Z,101068.11
2018-02-15T00:34:11.561Z,101057.84
2018-02-15T00:36:44.080Z,101047.57
2018-02-15T00:39:16.611Z,101049.13
2018-02-15T00:41:49.186Z,101044.42
2018-02-15T00:44:21.706Z,101046.95
2018-02-15T00:46:54.220Z,101036.27
2018-02-15T00:49:26.769Z,101039.77
2018-02-15T00:51:59.310Z,101042.41
2018-02-15T00:54:31.958Z,101034.16
2018-02-15T00:57:04.527Z,101039.38
2018-02-15T00:59:37.064Z,101033.47
2018-02-15T01:02:09.602Z,101043.72
2018-02-15T01:04:42.104Z,101040.89
2018-02-15T01:07:14.629Z,101041.30
2018-02-15T01:09:47.140Z,101035.91
2018-02-15T01:12:19.680Z,101030.90
2018-02-15T01:14:52.186Z,101029.30
2018-02-15T01:17:24.730Z,101027.42
2018-02-15T01:19:57.307Z,101015.69
2018-02-15T01:22:29.860Z,101014.50
2018-02-15T01:25:02.384Z,101021.07
2018-02-15T01:27:34.926Z,101012.33
2018-02-15T01:30:07.426Z,101008.87
2018-02-15T01:32:39.947Z,100994.20
2018-02-15T01:35:12.465Z,100987.35
2018-02-15T01:37:45.014Z,100982.41
2018-02-15T01:40:17.529Z,100982.22
2018-02-15T01:42:50.061Z,100984.18
2018-02-15T01:45:22.576Z,100977.91
2018-02-15T01:47:55.150Z,100972.75
2018-02-15T01:50:27.711Z,100973.33
2018-02-15T01:53:00.244Z,100969.75
2018-02-15T01:55:33.583Z,100964.33
2018-02-15T01:58:06.111Z,100954.42
2018-02-15T02:00:38.667Z,100954.64
2018-02-15T02:03:11.195Z,100955.14
2018-02-15T02:05:43.908Z,100961.00
2018-02-15T02:08:16.465Z,100961.06
2018-02-15T02:10:48.977Z,100968.80
2018-02-15T02:13:21.502Z,100966.38
2018-02-15T02:15:54.016Z,100963.22
2018-02-15T02:18:26.537Z,100958.06
2018-02-15T02:20:59.034Z,100961.27
2018-02-15T02:23:31.555Z,100960.50
2018-02-15T02:26:04.070Z,100953.28
2018-02-15T02:28:36.587Z,100949.80
2018-02-15T02:31:09.097Z,100946.58
2018-02-15T02:33:41.629Z,100943.99
2018-02-15T02:36:14.173Z,100943.66
2018-02-15T02:38:46.769Z,100936.46
2018-02-15T02:41:19.290Z,100941.14
2018-02-15T02:43:51.830Z,100940.70
2018-02-15T02:46:24.338Z,100935.44
2018-02-15T02:48:56.869Z,100939.65
2018-02-15T02:51:29.361Z,100937.97
2018-02-15T02:54:01.892Z,100941.33
2018-02-15T02:56:34.441Z,100938.60
2018-02-15T02:59:06.974Z,100935.39
2018-02-15T03:01:39.485Z,100922.42
2018-02-15T03:04:12.068Z,100913.89
2018-02-15T03:06:44.578Z,100911.83
2018-02-15T03:09:17.098Z,100912.68
2018-02-15T03:11:49.719Z,100900.05
2018-02-15T03:14:22.263Z,100906.83
2018-02-15T03:16:54.793Z,100911.20
2018-02-15T03:19:27.327Z,100896.46
2018-02-15T03:21:59.843Z,100892.44
2018-02-15T03:24:32.383Z,100883.42
2018-02-15T03:27:04.894Z,100869.48
2018-02-15T03:29:37.409Z,100861.45
2018-02-15T03:32:09.909Z,100858.79
2018-02-15T03:34:42.437Z,100868.16
2018-02-15T03:37:14.936Z,100860.87
2018-02-15T03:39:47.471Z,100867.63
2018-02-15T03:42:19.980Z,100869.02
2018-02-15T03:44:52.509Z,100867.30
2018-02-15T03:47:25.012Z,100868.55
2018-02-15T03:49:57.538Z,100865.50
2018-02-15T03:52:30.050Z,100864.15
2018-02-15T03:55:02.614Z,100870.23
2018-02-15T03:57:35.130Z,100871.30
2018-02-15T04:00:07.660Z,100873.41
2018-02-15T04:02:40.165Z,100863.45
2018-02-15T04:05:12.702Z,100866.17
2018-02-15T04:07:45.204Z,100860.65
2018-02-15T04:10:17.738Z,100859.81
2018-02-15T04:12:50.246Z,100850.13
2018-02-15T04:15:22.780Z,100856.79
2018-02-15T04:17:55.287Z,100859.34
2018-02-15T04:20:27.837Z,100854.61
2018-02-15T04:23:00.347Z,100864.00
2018-02-15T04:25:32.902Z,100858.83
2018-02-15T04:28:05.399Z,100859.10
2018-02-15T04:30:37.945Z,100856.16
2018-02-15T04:33:10.465Z,100854.20
2018-02-15T04:35:42.991Z,100845.79
2018-02-15T04:38:15.494Z,100858.22
2018-02-15T04:40:48.035Z,100855.92
2018-02-15T04:43:20.541Z,100854.09
2018-02-15T04:45:53.076Z,100854.58
2018-02-15T04:48:25.690Z,100851.06
2018-02-15T04:50:58.243Z,100844.42
2018-02-15T04:53:30.750Z,100848.27
2018-02-15T04:56:03.283Z,100841.38
2018-02-15T04:58:35.792Z,100833.91
2018-02-15T05:01:08.339Z,100835.80
2018-02-15T05:03:40.856Z,100842.22
2018-02-15T05:06:13.414Z,100829.87
2018-02-15T05:08:45.917Z,100833.02
2018-02-15T05:11:18.474Z,100833.50
2018-02-15T05:13:50.981Z,100822.14
2018-02-15T05:16:23.514Z,100808.00
2018-02-15T05:18:56.018Z,100811.13
2018-02-15T05:21:28.567Z,100812.95
2018-02-15T05:24:01.091Z,100806.73
2018-02-15T05:26:33.644Z,100798.30
2018-02-15T05:29:06.151Z,100795.94
2018-02-15T05:31:38.690Z,100797.07
2018-02-15T05:34:11.197Z,100793.92
2018-02-15T05:36:43.742Z,100785.09
2018-02-15T05:39:16.261Z,100791.72
2018-02-15T05:41:48.796Z,100787.24
2018-02-15T05:44:21.291Z,100787.09
2018-02-15T05:46:53.831Z,100788.94
2018-02-15T05:49:26.341Z,100783.58
2018-02-15T05:51:58.887Z,100778.69
2018-02-15T05:54:31.402Z,100776.85
2018-02-15T05:57:03.949Z,100786.20
2018-02-15T05:59:36.490Z,100788.02
2018-02-15T06:02:09.037Z,100786.52
2018-02-15T06:04:41.552Z,100782.53
2018-02-15T06:07:14.108Z,100787.26
2018-02-15T06:09:46.615Z,100789.42
2018-02-15T06:12:19.141Z,100773.84
2018-02-15T06:14:51.660Z,100767.66
2018-02-15T06:17:24.234Z,100775.75
2018-02-15T06:19:56.737Z,100768.23
2018-02-15T06:22:29.292Z,100757.36
2018-02-15T06:25:01.798Z,100759.14
2018-02-15T06:27:34.338Z,100765.61
2018-02-15T06:30:06.838Z,100760.55
2018-02-15T06:32:39.404Z,100752.48
2018-02-15T06:35:11.910Z,100751.53
2018-02-15T06:37:45.363Z,100750.02
2018-02-15T06:40:17.867Z,100751.47
2018-02-15T06:42:50.393Z,100750.42
2018-02-15T06:45:22.896Z,100738.45
2018-02-15T06:47:55.411Z,100743.60
2018-02-15T06:50:27.922Z,100743.03
2018-02-15T06:53:00.462Z,100739.54
2018-02-15T06:55:32.969Z,100741.81
2018-02-15T06:58:05.493Z,100735.08
2018-02-15T07:00:38.003Z,100727.42
2018-02-15T07:03:10.561Z,100723.38
2018-02-15T07:05:43.065Z,100730.66
2018-02-15T07:08:15.602Z,100726.97
2018-02-15T07:10:48.095Z,100727.84
2018-02-15T07:13:20.650Z,100726.73
2018-02-15T07:15:53.162Z,100719.73
2018-02-15T07:18:25.710Z,100725.32
2018-02-15T07:20:58.215Z,100737.85
2018-02-15T07:23:30.766Z,100740.23
2018-02-15T07:26:03.294Z,100731.31
2018-02-15T07:28:35.815Z,100729.78
2018-02-15T07:31:08.317Z,100728.70
2018-02-15T07:33:40.867Z,100731.46
2018-02-15T07:36:13.365Z,100732.30
2018-02-15T07:38:45.898Z,100737.12
2018-02-15T07:41:18.396Z,100734.71
2018-02-15T07:43:50.936Z,100729.97
2018-02-15T07:46:23.446Z,100730.99
2018-02-15T07:48:55.970Z,100728.52
2018-02-15T07:51:28.493Z,100724.45
2018-02-15T07:54:01.043Z,100719.52
2018-02-15T07:56:33.569Z,100726.14
2018-02-15T07:59:06.118Z,100721.66
2018-02-15T08:01:38.625Z,100713.97
2018-02-15T08:04:11.178Z,100708.81
2018-02-15T08:06:43.684Z,100710.75
2018-02-15T08:09:16.220Z,100701.73
2018-02-15T08:11:48.750Z,100707.61
2018-02-15T08:14:21.284Z,100711.43
2018-02-15T08:16:53.785Z,100713.59
2018-02-15T08:19:26.325Z,100712.75
2018-02-15T08:21:58.854Z,100714.49
2018-02-15T08:24:31.396Z,100710.16
2018-02-15T08:27:03.890Z,100706.25
2018-02-15T08:29:36.422Z,100696.14
2018-02-15T08:32:08.959Z,100692.45
2018-02-15T08:34:41.492Z,100687.45
2018-02-15T08:37:13.992Z,100691.72
2018-02-15T08:39:46.547Z,100691.31
2018-02-15T08:42:19.078Z,100697.20
2018-02-15T08:44:51.632Z,100690.63
2018-02-15T08:47:24.172Z,100689.61
2018-02-15T08:49:56.703Z,100687.73
2018-02-15T08:52:29.208Z,100685.13
2018-02-15T08:55:01.732Z,100680.98
2018-02-15T08:57:34.265Z,100682.05
2018-02-15T09:00:06.789Z,100683.42
2018-02-15T09:02:39.298Z,100687.19
2018-02-15T09:05:11.836Z,100680.02
2018-02-15T09:07:44.332Z,100684.80
2018-02-15T09:10:16.861Z,100678.02
2018-02-15T09:12:49.386Z,100678.31
2018-02-15T09:15:21.922Z,100680.86
2018-02-15T09:17:54.432Z,100676.37
2018-02-15T09:20:26.972Z,100676.70
2018-02-15T09:22:59.477Z,100684.73
2018-02-15T09:25:32.016Z,100678.63
2018-02-15T09:28:04.564Z,100685.10
2018-02-15T09:30:37.073Z,100679.84
2018-02-15T09:33:09.591Z,100674.61
2018-02-15T09:35:42.264Z,100673.41
2018-02-15T09:38:14.785Z,100669.13
2018-02-15T09:40:47.372Z,100671.70
2018-02-15T09:43:20.006Z,100659.73
2018-02-15T09:45:52.532Z,100664.48
2018-02-15T09:48:25.062Z,100656.22
2018-02-15T09:50:57.580Z,100645.71
2018-02-15T09:53:30.090Z,100648.22
2018-02-15T09:56:02.739Z,100643.19
2018-02-15T09:58:35.275Z,100649.31
2018-02-15T10:01:07.809Z,100634.25
2018-02-15T10:03:40.313Z,100633.05
2018-02-15T10:06:12.839Z,100634.77
2018-02-15T10:08:45.565Z,100628.16
2018-02-15T10:11:18.095Z,100627.94
2018-02-15T10:13:50.604Z,100630.09
2018-02-15T10:16:23.126Z,100629.34
2018-02-15T10:18:55.637Z,100621.82
2018-02-15T10:21:28.164Z,100620.58
2018-02-15T10:24:00.668Z,100614.62
2018-02-15T10:26:33.195Z,100620.16
2018-02-15T10:29:05.701Z,100610.90
2018-02-15T10:31:38.228Z,100609.63
2018-02-15T10:34:10.759Z,100600.72
2018-02-15T10:36:43.270Z,100602.00
2018-02-15T10:39:15.765Z,100584.71
2018-02-15T10:41:48.293Z,100590.64
2018-02-15T10:44:20.793Z,100592.30
2018-02-15T10:46:53.314Z,100598.24
2018-02-15T10:49:25.817Z,100589.82
2018-02-15T10:51:58.350Z,100594.00
2018-02-15T10:54:30.861Z,100590.64
2018-02-15T10:57:03.389Z,100582.62
2018-02-15T10:59:35.893Z,100588.12
2018-02-15T11:02:14.129Z,100580.95
2018-02-15T11:04:52.152Z,100573.78
2018-02-15T11:07:24.682Z,100573.36
2018-02-15T11:09:57.181Z,100561.96
2018-02-15T11:12:29.705Z,100564.88
2018-02-15T11:15:03.093Z,100559.40
2018-02-15T11:17:35.620Z,100564.91
2018-02-15T11:20:08.152Z,100569.13
2018-02-15T11:22:40.683Z,100561.95
2018-02-15T11:25:13.196Z,100559.37
2018-02-15T11:27:45.740Z,100561.11
2018-02-15T11:30:18.243Z,100558.16
2018-02-15T11:32:50.778Z,100554.35
2018-02-15T11:35:23.286Z,100553.08
2018-02-15T11:37:55.827Z,100559.38
2018-02-15T11:40:28.329Z,100560.23
2018-02-15T11:43:00.844Z,100557.30
2018-02-15T11:45:33.348Z,100564.39
2018-02-15T11:48:05.872Z,100552.14
2018-02-15T11:50:38.367Z,100549.56
2018-02-15T11:53:10.889Z,100553.04
2018-02-15T11:55:43.377Z,100539.43
2018-02-15T11:58:15.899Z,100543.62
2018-02-15T12:00:48.399Z,100542.33
2018-02-15T12:03:20.931Z,100549.46
2018-02-15T12:05:53.469Z,100536.03
2018-02-15T12:08:25.971Z,100539.59
2018-02-15T12:10:58.492Z,100545.21
2018-02-15T12:13:31.009Z,100542.15
2018-02-15T12:16:03.524Z,100531.39
2018-02-15T12:18:36.041Z,100539.70
2018-02-15T12:21:08.576Z,100541.02
2018-02-15T12:23:41.095Z,100536.41
2018-02-15T12:26:13.636Z,100529.72
2018-02-15T12:28:46.149Z,100535.14
2018-02-15T12:31:18.694Z,100524.21
2018-02-15T12:33:51.241Z,100531.84
2018-02-15T12:36:23.748Z,100522.52
2018-02-15T12:38:56.260Z,100520.53
2018-02-15T12:41:28.782Z,100512.05
2018-02-15T12:44:01.299Z,100506.95
2018-02-15T12:46:33.827Z,100503.62
2018-02-15T12:49:06.326Z,100498.59
2018-02-15T12:51:38.863Z,100498.99
2018-02-15T12:54:11.359Z,100494.77
2018-02-15T12:56:43.876Z,100486.77
2018-02-15T12:59:16.408Z,100492.26
2018-02-15T13:01:48.933Z,100492.16
2018-02-15T13:04:21.433Z,100477.81
2018-02-15T13:06:53.959Z,100474.03
2018-02-15T13:09:26.462Z,100476.05
2018-02-15T13:11:58.998Z,100491.11
2018-02-15T13:14:31.521Z,100484.63
2018-02-15T13:17:04.040Z,100483.73
2018-02-15T13:19:48.288Z,100476.95
2018-02-15T13:22:32.564Z,100495.56
2018-02-15T13:25:05.072Z,100493.98
2018-02-15T13:27:49.457Z,100493.88
2018-02-15T13:30:21.969Z,100499.70
2018-02-15T13:32:54.536Z,100512.06
2018-02-15T13:35:27.030Z,100515.48
2018-02-15T13:37:59.557Z,100517.17
2018-02-15T13:40:32.070Z,100518.84
2018-02-15T13:43:04.606Z,100511.27
2018-02-15T13:45:37.120Z,100509.98
2018-02-15T13:48:09.643Z,100500.63
2018-02-15T13:50:42.148Z,100513.27
2018-02-15T13:53:14.692Z,100514.94
2018-02-15T13:58:26.037Z,100509.08
2018-02-15T14:00:58.536Z,100495.51
2018-02-15T14:03:31.067Z,100492.02
2018-02-15T14:06:03.572Z,100483.54
2018-02-15T14:08:36.117Z,100483.78
2018-02-15T14:11:08.628Z,100495.56
2018-02-15T14:13:41.159Z,100495.97
2018-02-15T14:16:13.664Z,100507.34
2018-02-15T14:18:46.190Z,100504.90
2018-02-15T14:21:18.695Z,100507.41
2018-02-15T14:23:51.217Z,100499.03
2018-02-15T14:26:23.711Z,100501.85
2018-02-15T14:28:56.251Z,100497.20
2018-02-15T14:31:28.757Z,100488.72
2018-02-15T14:34:01.272Z,100485.88
2018-02-15T14:36:33.779Z,100487.80
2018-02-15T14:39:06.301Z,100489.66
2018-02-15T14:41:38.803Z,100490.11
2018-02-15T14:44:11.330Z,100489.69
2018-02-15T14:46:43.843Z,100480.00
2018-02-15T14:49:16.366Z,100473.26
2018-02-15T14:51:48.859Z,100464.39
2018-02-15T14:54:21.390Z,100466.12
2018-02-15T14:56:53.909Z,100463.58
2018-02-15T14:59:26.436Z,100470.72
2018-02-15T15:01:58.943Z,100462.32
2018-02-15T15:04:31.460Z,100467.79
2018-02-15T15:07:03.976Z,100465.27
2018-02-15T15:09:36.493Z,100463.98
2018-02-15T15:12:08.987Z,100464.44
2018-02-15T15:14:41.502Z,100461.88
2018-02-15T15:17:14.015Z,100457.66
2018-02-15T15:19:46.557Z,100444.60
2018-02-15T15:22:19.067Z,100451.33
2018-02-15T15:24:51.605Z,100449.93
2018-02-15T15:27:24.117Z,100449.18
2018-02-15T15:29:56.651Z,100461.83
2018-02-15T15:32:29.161Z,100461.80
2018-02-15T15:35:01.685Z,100468.55
2018-02-15T15:37:34.196Z,100463.52
2018-02-15T15:40:07.767Z,100469.00
2018-02-15T15:42:40.277Z,100462.30
2018-02-15T15:45:12.815Z,100457.66
2018-02-15T15:47:45.337Z,100459.72
2018-02-15T15:50:17.854Z,100456.34
2018-02-15T15:52:50.365Z,100451.76
2018-02-15T15:55:22.912Z,100453.01
2018-02-15T15:57:55.424Z,100447.95
2018-02-15T16:00:27.951Z,100439.95
2018-02-15T16:03:00.455Z,100447.53
2018-02-15T16:05:32.976Z,100435.31
2018-02-15T16:08:05.502Z,100443.71
2018-02-15T16:10:38.045Z,100440.81
2018-02-15T16:13:10.559Z,100453.03
2018-02-15T16:15:43.083Z,100456.41
2018-02-15T16:18:17.449Z,100456.69
2018-02-15T16:20:51.065Z,100457.68
2018-02-15T16:23:23.573Z,100456.42
2018-02-15T16:25:56.112Z,100447.13
2018-02-15T16:28:28.622Z,100442.94
2018-02-15T16:31:01.167Z,100445.45
2018-02-15T16:33:33.675Z,100450.95
2018-02-15T16:36:06.218Z,100455.18
2018-02-15T16:38:39.694Z,100457.27
2018-02-15T16:41:12.224Z,100464.03
2018-02-15T16:43:44.736Z,100468.25
2018-02-15T16:46:17.267Z,100459.38
2018-02-15T16:48:49.788Z,100472.05
2018-02-15T16:51:22.332Z,100467.84
2018-02-15T16:53:54.866Z,100472.41
2018-02-15T16:56:27.406Z,100468.55
2018-02-15T16:59:01.869Z,100472.00
2018-02-15T17:01:34.385Z,100479.20
2018-02-15T17:04:06.997Z,100474.98
2018-02-15T17:06:39.499Z,100483.03
2018-02-15T17:09:12.043Z,100486.39
2018-02-15T17:11:44.570Z,100491.45
2018-02-15T17:14:17.100Z,100496.47
2018-02-15T17:16:49.659Z,100485.13
2018-02-15T17:19:22.243Z,100498.21
2018-02-15T17:21:54.757Z,100485.56
2018-02-15T17:24:27.302Z,100482.59
2018-02-15T17:26:59.814Z,100473.28
2018-02-15T17:29:32.351Z,100474.88
2018-02-15T17:32:04.864Z,100470.75
2018-02-15T17:34:37.399Z,100471.20
2018-02-15T17:37:09.922Z,100473.28
2018-02-15T17:39:42.502Z,100482.58
2018-02-15T17:42:15.040Z,100486.39
2018-02-15T17:44:47.596Z,100489.78
2018-02-15T17:47:20.116Z,100493.58
2018-02-15T17:49:52.653Z,100495.28
2018-02-15T17:52:25.181Z,100495.27
2018-02-15T17:54:57.752Z,100488.92
2018-02-15T17:57:31.134Z,100491.45
2018-02-15T18:00:03.669Z,100493.16
2018-02-15T18:02:36.216Z,100493.98
2018-02-15T18:05:08.753Z,100499.92
2018-02-15T18:07:41.270Z,100504.97
2018-02-15T18:10:13.805Z,100510.03
2018-02-15T18:12:46.322Z,100504.11
2018-02-15T18:15:18.954Z,100506.66
2018-02-15T18:17:51.486Z,100503.27
2018-02-15T18:20:24.037Z,100499.45
2018-02-15T18:22:56.587Z,100504.10
2018-02-15T18:25:29.128Z,100501.57
2018-02-15T18:28:01.739Z,100494.41
2018-02-15T18:30:34.304Z,100495.23
2018-02-15T18:33:06.820Z,100502.83
2018-02-15T18:35:39.512Z,100496.09
2018-02-15T18:38:12.098Z,100508.77
2018-02-15T18:40:44.631Z,100506.64
2018-02-15T18:43:17.141Z,100512.56
2018-02-15T18:45:49.688Z,100512.97
2018-02-15T18:48:22.185Z,100518.87
2018-02-15T18:50:54.734Z,100514.23
2018-02-15T18:53:27.246Z,100517.20
2018-02-15T18:55:59.833Z,100515.91
2018-02-15T18:58:32.353Z,100518.47
2018-02-15T19:01:04.891Z,100517.16
2018-02-15T19:03:37.405Z,100514.63
2018-02-15T19:06:09.961Z,100524.35
2018-02-15T19:08:42.487Z,100518.47
2018-02-15T19:11:15.030Z,100514.25
2018-02-15T19:13:47.583Z,100516.36
2018-02-15T19:16:20.117Z,100508.34
2018-02-15T19:18:52.634Z,100512.55
2018-02-15T19:21:25.176Z,100500.33
2018-02-15T19:23:57.693Z,100496.11
2018-02-15T19:26:30.232Z,100494.42
2018-02-15T19:29:03.873Z,100494.41
2018-02-15T19:31:36.447Z,100497.36
2018-02-15T19:34:08.966Z,100506.66
2018-02-15T19:36:41.505Z,100508.34
2018-02-15T19:39:14.010Z,100517.20
2018-02-15T19:41:46.978Z,100517.19
2018-02-15T19:44:19.527Z,100522.26
2018-02-15T19:46:52.077Z,100529.02
2018-02-15T19:49:24.635Z,100523.12
2018-02-15T19:51:57.173Z,100523.96
2018-02-15T19:54:29.687Z,100532.81
2018-02-15T19:57:02.292Z,100531.11
2018-02-15T19:59:34.806Z,100546.75
2018-02-15T20:02:07.352Z,100539.15
2018-02-15T20:04:39.883Z,100543.77
2018-02-15T20:07:12.461Z,100545.91
2018-02-15T20:09:44.985Z,100541.25
2018-02-15T20:12:18.297Z,100536.19
2018-02-15T20:14:50.914Z,100539.98
2018-02-15T20:17:23.536Z,100551.41
2018-02-15T20:20:01.644Z,100548.01
2018-02-15T20:22:34.164Z,100557.32
2018-02-15T20:25:06.695Z,100558.17
2018-02-15T20:30:55.730Z,100559.84
2018-02-15T20:33:28.271Z,100558.09
2018-02-15T20:36:00.825Z,100564.05
2018-02-15T20:38:38.956Z,100564.03
2018-02-15T20:41:11.530Z,100577.98
2018-02-15T20:43:49.426Z,100582.21
2018-02-15T20:46:21.959Z,100587.28
2018-02-15T20:48:54.476Z,100583.48
2018-02-15T20:51:32.680Z,100596.59
2018-02-15T20:54:10.869Z,100597.86
2018-02-15T20:56:43.405Z,100602.94
2018-02-15T20:59:15.948Z,100610.96
2018-02-15T21:01:48.496Z,100609.69
2018-02-15T21:04:21.024Z,100612.19
2018-02-15T21:06:53.566Z,100609.25
2018-02-15T21:09:26.088Z,100612.19
2018-02-15T21:11:58.625Z,100609.25
2018-02-15T21:14:31.149Z,100610.92
2018-02-15T21:17:03.696Z,100626.16
2018-02-15T21:19:36.221Z,100628.63
2018-02-15T21:22:08.763Z,100630.79
2018-02-15T21:24:41.291Z,100631.22
2018-02-15T21:27:13.836Z,100633.75
2018-02-15T21:29:46.365Z,100630.34
2018-02-15T21:32:18.909Z,100628.64
2018-02-15T21:34:51.511Z,100637.94
2018-02-15T21:37:24.029Z,100646.83
2018-02-15T21:39:56.543Z,100645.55
2018-02-15T21:42:29.067Z,100651.04
2018-02-15T21:45:01.573Z,100659.86
2018-02-15T21:47:34.105Z,100657.77
2018-02-15T21:50:06.626Z,100661.16
2018-02-15T21:52:39.175Z,100656.94
2018-02-15T21:55:11.689Z,100656.12
2018-02-15T21:57:44.243Z,100657.77
2018-02-15T22:00:16.774Z,100659.89
2018-02-15T22:02:49.341Z,100667.05
2018-02-15T22:05:21.926Z,100672.20
2018-02-15T22:07:54.483Z,100671.34
2018-02-15T22:10:27.020Z,100679.35
2018-02-15T22:12:59.576Z,100681.42
2018-02-15T22:15:32.100Z,100683.99
2018-02-15T22:18:04.634Z,100683.56
2018-02-15T22:20:37.144Z,100683.55
2018-02-15T22:23:09.684Z,100684.84
2018-02-15T22:25:42.213Z,100684.41
2018-02-15T22:28:14.774Z,100684.02
2018-02-15T22:30:47.304Z,100696.67
2018-02-15T22:33:19.861Z,100700.47
2018-02-15T22:35:52.387Z,100714.45
2018-02-15T22:38:24.929Z,100716.97
2018-02-15T22:40:57.477Z,100711.07
2018-02-15T22:43:30.028Z,100716.56
2018-02-15T22:46:02.566Z,100716.13
2018-02-15T22:48:35.119Z,100716.15
2018-02-15T22:51:07.647Z,100716.97
2018-02-15T22:53:40.212Z,100722.46
2018-02-15T22:56:12.750Z,100729.23
2018-02-15T22:58:45.292Z,100727.94
2018-02-15T23:01:17.830Z,100731.73
2018-02-15T23:03:50.588Z,100727.95
2018-02-15T23:06:23.115Z,100733.47
2018-02-15T23:08:55.672Z,100731.83
2018-02-15T23:11:28.225Z,100733.50
2018-02-15T23:14:00.797Z,100732.24
2018-02-15T23:16:33.423Z,100736.86
2018-02-15T23:19:05.992Z,100740.71
2018-02-15T23:21:38.584Z,100740.27
2018-02-15T23:24:11.081Z,100753.37
2018-02-15T23:26:43.629Z,100750.41
2018-02-15T23:29:16.159Z,100754.23
2018-02-15T23:31:48.708Z,100756.77
2018-02-15T23:34:21.216Z,100762.27
2018-02-15T23:36:53.749Z,100766.06
2018-02-15T23:39:26.276Z,100770.29
2018-02-15T23:41:58.815Z,100769.86
2018-02-15T23:44:31.351Z,100766.05
2018-02-15T23:47:03.874Z,100774.08
2018-02-15T23:49:36.405Z,100775.76
2018-02-15T23:52:08.952Z,100783.78
2018-02-15T23:54:41.462Z,100787.52
2018-02-15T23:57:14.036Z,100789.22
2018-02-15T23:59:46.565Z,100796.04
